FDX1102 KLAX-KMEM
Flight info
| Callsign | FDX1102 |
|---|---|
| Flight time | 2h 54m |
| Altitude | 35000 |
| Route | DOTSS2 CLEEE PKE HIDAT KA27O NABOB KA27Q KA27S IMMAS KA30Y KF30A IRW LITTR HOBRK4 |
| Aircraft | B77L/H-SDE1E2E3FGHIJ2J3J4J5M1RWXY/LB1D1 |
Departure
| Time | 2026-04-25 20:01 |
|---|---|
| Airport | Los Angeles International Airport (KLAX) |
Arrival
| Time | 2026-04-25 22:55 |
|---|---|
| Airport | Memphis International Airport (KMEM) |
| Time | Latitude | Longitude | Altitude | Speed | Heading |
|---|---|---|---|---|---|
| 2026-04-25 19:31 | 33.93404 | -118.38838 | 130 ft | 0 kts | 173° |
| 2026-04-25 19:49 | 33.93443 | -118.38846 | 125 ft | 4 kts | 165° |
| 2026-04-25 19:49 | 33.93469 | -118.38856 | 124 ft | 4 kts | 157° |
| 2026-04-25 19:50 | 33.93515 | -118.38888 | 125 ft | 4 kts | 138° |
| 2026-04-25 19:50 | 33.93533 | -118.38912 | 124 ft | 4 kts | 122° |
| 2026-04-25 19:50 | 33.93544 | -118.38941 | 124 ft | 4 kts | 95° |
| 2026-04-25 19:51 | 33.93544 | -118.38953 | 124 ft | 0 kts | 83° |
| 2026-04-25 19:55 | 33.93545 | -118.38944 | 130 ft | 3 kts | 83° |
| 2026-04-25 19:55 | 33.93552 | -118.38877 | 126 ft | 9 kts | 83° |
| 2026-04-25 19:56 | 33.93559 | -118.38801 | 130 ft | 9 kts | 83° |
| 2026-04-25 19:56 | 33.93567 | -118.38726 | 126 ft | 9 kts | 83° |
| 2026-04-25 19:56 | 33.93575 | -118.38650 | 127 ft | 9 kts | 83° |
| 2026-04-25 19:56 | 33.93582 | -118.38575 | 126 ft | 9 kts | 83° |
| 2026-04-25 19:57 | 33.93589 | -118.38499 | 130 ft | 9 kts | 83° |
| 2026-04-25 19:57 | 33.93597 | -118.38423 | 126 ft | 9 kts | 83° |
| 2026-04-25 19:57 | 33.93604 | -118.38359 | 129 ft | 0 kts | 82° |
| 2026-04-25 19:58 | 33.93604 | -118.38357 | 129 ft | 2 kts | 82° |
| 2026-04-25 19:59 | 33.93607 | -118.38330 | 126 ft | 8 kts | 82° |
| 2026-04-25 19:59 | 33.93677 | -118.38282 | 127 ft | 10 kts | 358° |
| 2026-04-25 19:59 | 33.93721 | -118.38289 | 127 ft | 10 kts | 337° |
| 2026-04-25 19:59 | 33.93730 | -118.38368 | 125 ft | 12 kts | 263° |
| 2026-04-25 20:00 | 33.93706 | -118.38615 | 127 ft | 58 kts | 263° |
| 2026-04-25 20:00 | 33.93656 | -118.39052 | 127 ft | 100 kts | 262° |
| 2026-04-25 20:00 | 33.93492 | -118.40555 | 128 ft | 166 kts | 263° |
| 2026-04-25 20:00 | 33.93355 | -118.42024 | 388 ft | 182 kts | 261° |
| 2026-04-25 20:01 | 33.93021 | -118.45164 | 1597 ft | 184 kts | 262° |
| 2026-04-25 20:01 | 33.92740 | -118.46643 | 2095 ft | 188 kts | 236° |
| 2026-04-25 20:01 | 33.91814 | -118.47839 | 2281 ft | 204 kts | 224° |
| 2026-04-25 20:02 | 33.90774 | -118.49132 | 2458 ft | 229 kts | 227° |
| 2026-04-25 20:02 | 33.89709 | -118.50656 | 2867 ft | 246 kts | 231° |
| 2026-04-25 20:02 | 33.89100 | -118.51581 | 3236 ft | 250 kts | 231° |
| 2026-04-25 20:02 | 33.88486 | -118.52516 | 3578 ft | 255 kts | 231° |
| 2026-04-25 20:03 | 33.87378 | -118.54195 | 4374 ft | 257 kts | 230° |
| 2026-04-25 20:03 | 33.86046 | -118.55616 | 4918 ft | 262 kts | 204° |
| 2026-04-25 20:03 | 33.84256 | -118.55983 | 5579 ft | 266 kts | 175° |
| 2026-04-25 20:03 | 33.82423 | -118.55549 | 6151 ft | 273 kts | 169° |
| 2026-04-25 20:04 | 33.80547 | -118.55032 | 6782 ft | 278 kts | 170° |
| 2026-04-25 20:04 | 33.79823 | -118.54832 | 7073 ft | 278 kts | 169° |
| 2026-04-25 20:04 | 33.79679 | -118.54793 | 7135 ft | 278 kts | 170° |
| 2026-04-25 20:04 | 33.77803 | -118.54277 | 7954 ft | 276 kts | 170° |
| 2026-04-25 20:05 | 33.75945 | -118.53769 | 8692 ft | 278 kts | 170° |
| 2026-04-25 20:05 | 33.74052 | -118.53256 | 9409 ft | 280 kts | 171° |
| 2026-04-25 20:05 | 33.72146 | -118.52739 | 10128 ft | 280 kts | 170° |
| 2026-04-25 20:05 | 33.70317 | -118.51806 | 10490 ft | 301 kts | 146° |
| 2026-04-25 20:06 | 33.68948 | -118.49753 | 10650 ft | 333 kts | 118° |
| 2026-04-25 20:06 | 33.68129 | -118.47054 | 10818 ft | 356 kts | 112° |
| 2026-04-25 20:06 | 33.67322 | -118.44145 | 11010 ft | 378 kts | 112° |
| 2026-04-25 20:06 | 33.67236 | -118.43842 | 11055 ft | 379 kts | 112° |
| 2026-04-25 20:07 | 33.67045 | -118.43168 | 11171 ft | 382 kts | 112° |
| 2026-04-25 20:07 | 33.66164 | -118.40105 | 11736 ft | 393 kts | 113° |
| 2026-04-25 20:08 | 33.65246 | -118.36981 | 12453 ft | 401 kts | 114° |
| 2026-04-25 20:08 | 33.64402 | -118.33764 | 13051 ft | 410 kts | 105° |
| 2026-04-25 20:08 | 33.64226 | -118.30339 | 13511 ft | 425 kts | 92° |
| 2026-04-25 20:08 | 33.64304 | -118.26748 | 14148 ft | 433 kts | 92° |
| 2026-04-25 20:09 | 33.64378 | -118.23136 | 14969 ft | 434 kts | 92° |
| 2026-04-25 20:09 | 33.64429 | -118.19504 | 15810 ft | 436 kts | 93° |
| 2026-04-25 20:09 | 33.64456 | -118.15853 | 16564 ft | 439 kts | 93° |
| 2026-04-25 20:09 | 33.64466 | -118.12161 | 17266 ft | 445 kts | 94° |
| 2026-04-25 20:10 | 33.64466 | -118.08428 | 17965 ft | 449 kts | 94° |
| 2026-04-25 20:10 | 33.64461 | -118.04654 | 18597 ft | 454 kts | 94° |
| 2026-04-25 20:10 | 33.64454 | -118.00827 | 19149 ft | 460 kts | 94° |
| 2026-04-25 20:10 | 33.64447 | -117.97017 | 19710 ft | 465 kts | 94° |
| 2026-04-25 20:11 | 33.64441 | -117.93123 | 20296 ft | 469 kts | 94° |
| 2026-04-25 20:11 | 33.64434 | -117.89188 | 20882 ft | 473 kts | 94° |
| 2026-04-25 20:11 | 33.64425 | -117.85224 | 21461 ft | 477 kts | 94° |
| 2026-04-25 20:11 | 33.64415 | -117.81219 | 22035 ft | 481 kts | 94° |
| 2026-04-25 20:12 | 33.64608 | -117.77186 | 22534 ft | 489 kts | 84° |
| 2026-04-25 20:12 | 33.65317 | -117.73151 | 23010 ft | 497 kts | 78° |
| 2026-04-25 20:12 | 33.66195 | -117.69109 | 23539 ft | 502 kts | 78° |
| 2026-04-25 20:12 | 33.66745 | -117.66411 | 23858 ft | 503 kts | 80° |
| 2026-04-25 20:13 | 33.67681 | -117.60887 | 24496 ft | 507 kts | 82° |
| 2026-04-25 20:13 | 33.68310 | -117.56702 | 24971 ft | 511 kts | 83° |
| 2026-04-25 20:13 | 33.68927 | -117.52483 | 25432 ft | 515 kts | 83° |
| 2026-04-25 20:13 | 33.69554 | -117.48231 | 25867 ft | 520 kts | 83° |
| 2026-04-25 20:14 | 33.70200 | -117.43941 | 26287 ft | 523 kts | 82° |
| 2026-04-25 20:14 | 33.70704 | -117.40644 | 26622 ft | 526 kts | 82° |
| 2026-04-25 20:15 | 33.71047 | -117.38428 | 26848 ft | 528 kts | 82° |
| 2026-04-25 20:15 | 33.71727 | -117.34075 | 27247 ft | 532 kts | 82° |
| 2026-04-25 20:15 | 33.72413 | -117.29693 | 27673 ft | 536 kts | 82° |
| 2026-04-25 20:16 | 33.73105 | -117.25268 | 28103 ft | 540 kts | 82° |
| 2026-04-25 20:16 | 33.73798 | -117.20814 | 28484 ft | 543 kts | 82° |
| 2026-04-25 20:16 | 33.74492 | -117.16338 | 28897 ft | 547 kts | 82° |
| 2026-04-25 20:16 | 33.75188 | -117.11833 | 29264 ft | 549 kts | 82° |
| 2026-04-25 20:17 | 33.75884 | -117.07318 | 29735 ft | 550 kts | 82° |
| 2026-04-25 20:17 | 33.76580 | -117.02792 | 30243 ft | 549 kts | 82° |
| 2026-04-25 20:17 | 33.77272 | -116.98278 | 30677 ft | 549 kts | 82° |
| 2026-04-25 20:17 | 33.77963 | -116.93761 | 31073 ft | 550 kts | 82° |
| 2026-04-25 20:18 | 33.78642 | -116.89299 | 31433 ft | 551 kts | 82° |
| 2026-04-25 20:18 | 33.79332 | -116.84759 | 31795 ft | 551 kts | 82° |
| 2026-04-25 20:18 | 33.80020 | -116.80219 | 32173 ft | 552 kts | 82° |
| 2026-04-25 20:18 | 33.80707 | -116.75676 | 32556 ft | 553 kts | 83° |
| 2026-04-25 20:19 | 33.81393 | -116.71128 | 32936 ft | 553 kts | 83° |
| 2026-04-25 20:19 | 33.82078 | -116.66578 | 33356 ft | 552 kts | 83° |
| 2026-04-25 20:19 | 33.82756 | -116.62078 | 34011 ft | 543 kts | 84° |
| 2026-04-25 20:19 | 33.83428 | -116.57591 | 34118 ft | 549 kts | 84° |
| 2026-04-25 20:20 | 33.84101 | -116.53038 | 34267 ft | 555 kts | 83° |
| 2026-04-25 20:20 | 33.84782 | -116.48448 | 34381 ft | 559 kts | 83° |
| 2026-04-25 20:20 | 33.85468 | -116.43839 | 34662 ft | 559 kts | 83° |
| 2026-04-25 20:20 | 33.86152 | -116.39238 | 34913 ft | 560 kts | 83° |
| 2026-04-25 20:21 | 33.87530 | -116.29906 | 34904 ft | 570 kts | 83° |
| 2026-04-25 20:21 | 33.88902 | -116.20549 | 34895 ft | 570 kts | 83° |
| 2026-04-25 20:22 | 33.89822 | -116.14266 | 34885 ft | 570 kts | 83° |
| 2026-04-25 20:22 | 33.91640 | -116.01747 | 34871 ft | 570 kts | 83° |
| 2026-04-25 20:23 | 33.92997 | -115.92343 | 34844 ft | 569 kts | 83° |
| 2026-04-25 20:23 | 33.94346 | -115.82943 | 34852 ft | 568 kts | 83° |
| 2026-04-25 20:24 | 33.95677 | -115.73614 | 34828 ft | 568 kts | 83° |
| 2026-04-25 20:24 | 33.97008 | -115.64235 | 34839 ft | 568 kts | 83° |
| 2026-04-25 20:25 | 33.98331 | -115.54856 | 34825 ft | 568 kts | 83° |
| 2026-04-25 20:25 | 33.99648 | -115.45463 | 34820 ft | 568 kts | 83° |
| 2026-04-25 20:26 | 34.00959 | -115.36070 | 34811 ft | 569 kts | 83° |
| 2026-04-25 20:26 | 34.02264 | -115.26666 | 34796 ft | 567 kts | 83° |
| 2026-04-25 20:27 | 34.03559 | -115.17261 | 34804 ft | 570 kts | 84° |
| 2026-04-25 20:27 | 34.04846 | -115.07857 | 34802 ft | 573 kts | 84° |
| 2026-04-25 20:28 | 34.06149 | -114.98304 | 34786 ft | 574 kts | 83° |
| 2026-04-25 20:28 | 34.07439 | -114.88782 | 34794 ft | 576 kts | 84° |
| 2026-04-25 20:29 | 34.08719 | -114.79277 | 34805 ft | 577 kts | 84° |
| 2026-04-25 20:29 | 34.10040 | -114.69729 | 34786 ft | 578 kts | 81° |
| 2026-04-25 20:30 | 34.12241 | -114.60383 | 34785 ft | 579 kts | 72° |
| 2026-04-25 20:30 | 34.14885 | -114.51269 | 34790 ft | 578 kts | 72° |
| 2026-04-25 20:31 | 34.17517 | -114.42099 | 34793 ft | 577 kts | 72° |
| 2026-04-25 20:31 | 34.20089 | -114.32903 | 34786 ft | 577 kts | 72° |
| 2026-04-25 20:32 | 34.22630 | -114.23715 | 34791 ft | 576 kts | 72° |
| 2026-04-25 20:32 | 34.25165 | -114.14528 | 34795 ft | 576 kts | 72° |
| 2026-04-25 20:33 | 34.27682 | -114.05394 | 34818 ft | 576 kts | 72° |
| 2026-04-25 20:33 | 34.29374 | -113.99238 | 34790 ft | 577 kts | 72° |
| 2026-04-25 20:34 | 34.32740 | -113.86966 | 34828 ft | 577 kts | 72° |
| 2026-04-25 20:34 | 34.35259 | -113.77742 | 34805 ft | 577 kts | 72° |
| 2026-04-25 20:35 | 34.37769 | -113.68514 | 34791 ft | 576 kts | 72° |
| 2026-04-25 20:35 | 34.39314 | -113.62819 | 34797 ft | 575 kts | 72° |
| 2026-04-25 20:36 | 34.40057 | -113.60087 | 34798 ft | 575 kts | 72° |
| 2026-04-25 20:36 | 34.42547 | -113.50875 | 34811 ft | 574 kts | 72° |
| 2026-04-25 20:37 | 34.45019 | -113.41686 | 34816 ft | 574 kts | 72° |
| 2026-04-25 20:37 | 34.47491 | -113.32479 | 34822 ft | 573 kts | 72° |
| 2026-04-25 20:38 | 34.49936 | -113.23343 | 34830 ft | 573 kts | 72° |
| 2026-04-25 20:38 | 34.52393 | -113.14129 | 34823 ft | 573 kts | 73° |
| 2026-04-25 20:39 | 34.54808 | -113.04920 | 34822 ft | 573 kts | 76° |
| 2026-04-25 20:39 | 34.55861 | -112.98595 | 34837 ft | 570 kts | 85° |
| 2026-04-25 20:40 | 34.56058 | -112.85895 | 34844 ft | 564 kts | 99° |
| 2026-04-25 20:40 | 34.55344 | -112.76391 | 34842 ft | 565 kts | 99° |
| 2026-04-25 20:41 | 34.54646 | -112.66880 | 34868 ft | 567 kts | 99° |
| 2026-04-25 20:41 | 34.53994 | -112.57317 | 34870 ft | 571 kts | 99° |
| 2026-04-25 20:42 | 34.53349 | -112.47687 | 34963 ft | 573 kts | 99° |
| 2026-04-25 20:42 | 34.52694 | -112.38091 | 34957 ft | 574 kts | 99° |
| 2026-04-25 20:43 | 34.52024 | -112.28437 | 34951 ft | 574 kts | 99° |
| 2026-04-25 20:43 | 34.51345 | -112.18799 | 34928 ft | 573 kts | 99° |
| 2026-04-25 20:44 | 34.50661 | -112.09169 | 34889 ft | 572 kts | 99° |
| 2026-04-25 20:44 | 34.49768 | -111.99601 | 34872 ft | 567 kts | 105° |
| 2026-04-25 20:45 | 34.48140 | -111.91962 | 34882 ft | 559 kts | 114° |
| 2026-04-25 20:45 | 34.45418 | -111.81504 | 34876 ft | 559 kts | 114° |
| 2026-04-25 20:46 | 34.43510 | -111.74014 | 34898 ft | 561 kts | 113° |
| 2026-04-25 20:46 | 34.41238 | -111.64944 | 34893 ft | 564 kts | 113° |
| 2026-04-25 20:47 | 34.38952 | -111.55818 | 34957 ft | 567 kts | 113° |
| 2026-04-25 20:47 | 34.36646 | -111.46668 | 35004 ft | 568 kts | 113° |
| 2026-04-25 20:48 | 34.34406 | -111.37471 | 35020 ft | 573 kts | 108° |
| 2026-04-25 20:48 | 34.33564 | -111.27805 | 35001 ft | 582 kts | 93° |
| 2026-04-25 20:49 | 34.34412 | -111.18032 | 35005 ft | 586 kts | 81° |
| 2026-04-25 20:49 | 34.35841 | -111.08384 | 34966 ft | 586 kts | 81° |
| 2026-04-25 20:50 | 34.37236 | -110.98637 | 34935 ft | 587 kts | 82° |
| 2026-04-25 20:50 | 34.38548 | -110.88875 | 34911 ft | 587 kts | 82° |
| 2026-04-25 20:51 | 34.39828 | -110.79103 | 34895 ft | 587 kts | 82° |
| 2026-04-25 20:51 | 34.41106 | -110.69341 | 34901 ft | 586 kts | 82° |
| 2026-04-25 20:52 | 34.42167 | -110.61235 | 34900 ft | 585 kts | 82° |
| 2026-04-25 20:52 | 34.43643 | -110.49897 | 34917 ft | 585 kts | 82° |
| 2026-04-25 20:53 | 34.44899 | -110.40171 | 34950 ft | 585 kts | 82° |
| 2026-04-25 20:53 | 34.46149 | -110.30428 | 34875 ft | 584 kts | 82° |
| 2026-04-25 20:54 | 34.47391 | -110.20686 | 34878 ft | 584 kts | 82° |
| 2026-04-25 20:54 | 34.48616 | -110.11014 | 34859 ft | 584 kts | 82° |
| 2026-04-25 20:55 | 34.49816 | -110.01271 | 34859 ft | 584 kts | 84° |
| 2026-04-25 20:55 | 34.50204 | -109.91471 | 34855 ft | 582 kts | 92° |
| 2026-04-25 20:56 | 34.50189 | -109.81651 | 34839 ft | 582 kts | 92° |
| 2026-04-25 20:56 | 34.50190 | -109.71818 | 34834 ft | 582 kts | 92° |
| 2026-04-25 20:57 | 34.50234 | -109.62002 | 34924 ft | 581 kts | 92° |
| 2026-04-25 20:57 | 34.50289 | -109.52207 | 34971 ft | 581 kts | 92° |
| 2026-04-25 20:58 | 34.50332 | -109.42413 | 35006 ft | 580 kts | 92° |
| 2026-04-25 20:58 | 34.50363 | -109.32716 | 34991 ft | 579 kts | 92° |
| 2026-04-25 20:59 | 34.50384 | -109.22962 | 34962 ft | 578 kts | 92° |
| 2026-04-25 20:59 | 34.50398 | -109.13233 | 34904 ft | 576 kts | 92° |
| 2026-04-25 21:00 | 34.50404 | -109.05131 | 34853 ft | 577 kts | 92° |
| 2026-04-25 21:01 | 34.50400 | -108.88844 | 34787 ft | 581 kts | 92° |
| 2026-04-25 21:01 | 34.50387 | -108.79041 | 34776 ft | 582 kts | 92° |
| 2026-04-25 21:02 | 34.50367 | -108.69265 | 34780 ft | 584 kts | 92° |
| 2026-04-25 21:02 | 34.50338 | -108.59403 | 34782 ft | 585 kts | 92° |
| 2026-04-25 21:03 | 34.50302 | -108.49518 | 34761 ft | 586 kts | 92° |
| 2026-04-25 21:03 | 34.50258 | -108.39634 | 34743 ft | 586 kts | 92° |
| 2026-04-25 21:04 | 34.50206 | -108.29757 | 34763 ft | 584 kts | 92° |
| 2026-04-25 21:04 | 34.50146 | -108.19910 | 34747 ft | 583 kts | 92° |
| 2026-04-25 21:05 | 34.50078 | -108.10085 | 34739 ft | 582 kts | 92° |
| 2026-04-25 21:05 | 34.50081 | -108.00345 | 34735 ft | 581 kts | 88° |
| 2026-04-25 21:06 | 34.51034 | -107.90605 | 34766 ft | 581 kts | 81° |
| 2026-04-25 21:06 | 34.52324 | -107.80924 | 34748 ft | 581 kts | 81° |
| 2026-04-25 21:07 | 34.53570 | -107.71299 | 34739 ft | 581 kts | 81° |
| 2026-04-25 21:07 | 34.54768 | -107.61608 | 34733 ft | 581 kts | 81° |
| 2026-04-25 21:08 | 34.55942 | -107.51913 | 34726 ft | 580 kts | 82° |
| 2026-04-25 21:08 | 34.57108 | -107.42225 | 34715 ft | 580 kts | 82° |
| 2026-04-25 21:09 | 34.58853 | -107.27686 | 34710 ft | 581 kts | 81° |
| 2026-04-25 21:09 | 34.60009 | -107.17972 | 34689 ft | 581 kts | 81° |
| 2026-04-25 21:10 | 34.61156 | -107.08269 | 34692 ft | 581 kts | 82° |
| 2026-04-25 21:10 | 34.62294 | -106.98569 | 34689 ft | 580 kts | 81° |
| 2026-04-25 21:11 | 34.63422 | -106.88886 | 34684 ft | 579 kts | 82° |
| 2026-04-25 21:11 | 34.64542 | -106.79201 | 34689 ft | 578 kts | 82° |
| 2026-04-25 21:12 | 34.65646 | -106.69590 | 34696 ft | 577 kts | 82° |
| 2026-04-25 21:12 | 34.66561 | -106.61570 | 34722 ft | 576 kts | 82° |
| 2026-04-25 21:13 | 34.67836 | -106.50315 | 34718 ft | 575 kts | 82° |
| 2026-04-25 21:13 | 34.68920 | -106.40683 | 34752 ft | 574 kts | 82° |
| 2026-04-25 21:14 | 34.69986 | -106.31126 | 34749 ft | 573 kts | 82° |
| 2026-04-25 21:14 | 34.71048 | -106.21533 | 34752 ft | 571 kts | 82° |
| 2026-04-25 21:15 | 34.72102 | -106.11952 | 34759 ft | 570 kts | 82° |
| 2026-04-25 21:15 | 34.73147 | -106.02386 | 34760 ft | 570 kts | 82° |
| 2026-04-25 21:16 | 34.74174 | -105.92901 | 34763 ft | 570 kts | 82° |
| 2026-04-25 21:16 | 34.75203 | -105.83335 | 34757 ft | 570 kts | 82° |
| 2026-04-25 21:17 | 34.76225 | -105.73763 | 34763 ft | 571 kts | 82° |
| 2026-04-25 21:17 | 34.77241 | -105.64172 | 34747 ft | 572 kts | 82° |
| 2026-04-25 21:18 | 34.78249 | -105.54584 | 34747 ft | 571 kts | 82° |
| 2026-04-25 21:18 | 34.79244 | -105.45049 | 34728 ft | 570 kts | 82° |
| 2026-04-25 21:19 | 34.80235 | -105.35477 | 34696 ft | 569 kts | 82° |
| 2026-04-25 21:19 | 34.81217 | -105.25912 | 34711 ft | 569 kts | 82° |
| 2026-04-25 21:20 | 34.81864 | -105.19573 | 34683 ft | 568 kts | 82° |
| 2026-04-25 21:20 | 34.83151 | -105.06855 | 34655 ft | 568 kts | 82° |
| 2026-04-25 21:21 | 34.84113 | -104.97265 | 34711 ft | 568 kts | 82° |
| 2026-04-25 21:21 | 34.85064 | -104.87715 | 34764 ft | 568 kts | 82° |
| 2026-04-25 21:22 | 34.86000 | -104.78219 | 34824 ft | 568 kts | 82° |
| 2026-04-25 21:22 | 34.86936 | -104.68658 | 34860 ft | 568 kts | 82° |
| 2026-04-25 21:23 | 34.87865 | -104.59097 | 34863 ft | 569 kts | 82° |
| 2026-04-25 21:23 | 34.88785 | -104.49534 | 34822 ft | 569 kts | 82° |
| 2026-04-25 21:24 | 34.89700 | -104.39953 | 34754 ft | 569 kts | 82° |
| 2026-04-25 21:24 | 34.90586 | -104.30363 | 34684 ft | 569 kts | 84° |
| 2026-04-25 21:25 | 34.91124 | -104.20798 | 34583 ft | 569 kts | 86° |
| 2026-04-25 21:25 | 34.91545 | -104.11174 | 34613 ft | 569 kts | 86° |
| 2026-04-25 21:26 | 34.91976 | -104.01527 | 34621 ft | 570 kts | 86° |
| 2026-04-25 21:26 | 34.92278 | -103.95079 | 34618 ft | 570 kts | 86° |
| 2026-04-25 21:27 | 34.92889 | -103.82215 | 34632 ft | 570 kts | 86° |
| 2026-04-25 21:27 | 34.93337 | -103.72569 | 34646 ft | 570 kts | 86° |
| 2026-04-25 21:28 | 34.93558 | -103.67733 | 34639 ft | 570 kts | 86° |
| 2026-04-25 21:29 | 34.95047 | -103.33815 | 34697 ft | 570 kts | 86° |
| 2026-04-25 21:30 | 34.95385 | -103.25788 | 34698 ft | 569 kts | 86° |
| 2026-04-25 21:30 | 34.95718 | -103.17768 | 34712 ft | 569 kts | 87° |
| 2026-04-25 21:31 | 34.96178 | -103.06497 | 34708 ft | 569 kts | 86° |
| 2026-04-25 21:31 | 34.96562 | -102.96852 | 34721 ft | 569 kts | 87° |
| 2026-04-25 21:32 | 34.96939 | -102.87201 | 34721 ft | 570 kts | 87° |
| 2026-04-25 21:32 | 34.97307 | -102.77607 | 34731 ft | 570 kts | 87° |
| 2026-04-25 21:33 | 34.97669 | -102.67948 | 34744 ft | 570 kts | 86° |
| 2026-04-25 21:33 | 34.98024 | -102.58284 | 34769 ft | 570 kts | 86° |
| 2026-04-25 21:34 | 34.98371 | -102.48610 | 34794 ft | 570 kts | 87° |
| 2026-04-25 21:34 | 34.98711 | -102.38937 | 34833 ft | 570 kts | 86° |
| 2026-04-25 21:35 | 34.99042 | -102.29267 | 34818 ft | 571 kts | 87° |
| 2026-04-25 21:35 | 34.99367 | -102.19586 | 34797 ft | 571 kts | 87° |
| 2026-04-25 21:36 | 34.99684 | -102.09896 | 34707 ft | 572 kts | 87° |
| 2026-04-25 21:36 | 34.99992 | -102.00267 | 34698 ft | 572 kts | 86° |
| 2026-04-25 21:37 | 35.00147 | -101.92143 | 34704 ft | 572 kts | 88° |
| 2026-04-25 21:37 | 35.00180 | -101.80875 | 34695 ft | 571 kts | 89° |
| 2026-04-25 21:38 | 35.00201 | -101.71188 | 34688 ft | 571 kts | 89° |
| 2026-04-25 21:38 | 35.00246 | -101.61500 | 34698 ft | 570 kts | 88° |
| 2026-04-25 21:39 | 35.00295 | -101.51823 | 34693 ft | 569 kts | 88° |
| 2026-04-25 21:39 | 35.00336 | -101.42164 | 34689 ft | 568 kts | 88° |
| 2026-04-25 21:40 | 35.00367 | -101.32578 | 34688 ft | 568 kts | 89° |
| 2026-04-25 21:40 | 35.00388 | -101.22948 | 34697 ft | 567 kts | 88° |
| 2026-04-25 21:41 | 35.00402 | -101.13324 | 34696 ft | 567 kts | 88° |
| 2026-04-25 21:41 | 35.00409 | -101.03706 | 34689 ft | 567 kts | 88° |
| 2026-04-25 21:42 | 35.00408 | -100.94147 | 34663 ft | 567 kts | 89° |
| 2026-04-25 21:42 | 35.00400 | -100.84526 | 34685 ft | 567 kts | 89° |
| 2026-04-25 21:43 | 35.00384 | -100.74893 | 34694 ft | 568 kts | 89° |
| 2026-04-25 21:43 | 35.00360 | -100.65233 | 34685 ft | 569 kts | 89° |
| 2026-04-25 21:44 | 35.00329 | -100.55553 | 34675 ft | 570 kts | 89° |
| 2026-04-25 21:45 | 35.00267 | -100.41096 | 34668 ft | 570 kts | 89° |
| 2026-04-25 21:45 | 35.00217 | -100.31410 | 34666 ft | 570 kts | 89° |
| 2026-04-25 21:46 | 35.00158 | -100.21738 | 34669 ft | 570 kts | 89° |
| 2026-04-25 21:46 | 35.00093 | -100.12137 | 34673 ft | 568 kts | 89° |
| 2026-04-25 21:47 | 35.00066 | -100.02519 | 34664 ft | 565 kts | 86° |
| 2026-04-25 21:47 | 35.00967 | -99.93038 | 34673 ft | 559 kts | 75° |
| 2026-04-25 21:48 | 35.02526 | -99.83766 | 34678 ft | 557 kts | 75° |
| 2026-04-25 21:48 | 35.04054 | -99.74551 | 34685 ft | 556 kts | 75° |
| 2026-04-25 21:49 | 35.05534 | -99.65278 | 34695 ft | 556 kts | 76° |
| 2026-04-25 21:49 | 35.06984 | -99.56016 | 34693 ft | 555 kts | 76° |
| 2026-04-25 21:50 | 35.08427 | -99.46751 | 34707 ft | 555 kts | 76° |
| 2026-04-25 21:50 | 35.09624 | -99.39059 | 34709 ft | 555 kts | 76° |
| 2026-04-25 21:51 | 35.11304 | -99.28210 | 34740 ft | 556 kts | 76° |
| 2026-04-25 21:51 | 35.12725 | -99.18986 | 34751 ft | 557 kts | 76° |
| 2026-04-25 21:52 | 35.14153 | -99.09661 | 34757 ft | 558 kts | 76° |
| 2026-04-25 21:52 | 35.15573 | -99.00338 | 34756 ft | 558 kts | 76° |
| 2026-04-25 21:53 | 35.16988 | -98.90997 | 34722 ft | 559 kts | 76° |
| 2026-04-25 21:53 | 35.18399 | -98.81634 | 34719 ft | 560 kts | 76° |
| 2026-04-25 21:54 | 35.19794 | -98.72324 | 34711 ft | 560 kts | 76° |
| 2026-04-25 21:54 | 35.21190 | -98.62949 | 34711 ft | 561 kts | 76° |
| 2026-04-25 21:55 | 35.22582 | -98.53561 | 34702 ft | 561 kts | 77° |
| 2026-04-25 21:55 | 35.23965 | -98.44178 | 34694 ft | 561 kts | 77° |
| 2026-04-25 21:56 | 35.25342 | -98.34778 | 34695 ft | 561 kts | 77° |
| 2026-04-25 21:56 | 35.26714 | -98.25368 | 34718 ft | 561 kts | 77° |
| 2026-04-25 21:57 | 35.28078 | -98.15957 | 34736 ft | 561 kts | 77° |
| 2026-04-25 21:57 | 35.29433 | -98.06549 | 34753 ft | 561 kts | 77° |
| 2026-04-25 21:58 | 35.30773 | -97.97200 | 34762 ft | 561 kts | 77° |
| 2026-04-25 21:58 | 35.32115 | -97.87774 | 34757 ft | 562 kts | 77° |
| 2026-04-25 21:59 | 35.33452 | -97.78334 | 34762 ft | 563 kts | 77° |
| 2026-04-25 21:59 | 35.34789 | -97.68848 | 34780 ft | 564 kts | 77° |
| 2026-04-25 22:00 | 35.35477 | -97.59228 | 34768 ft | 569 kts | 88° |
| 2026-04-25 22:00 | 35.35341 | -97.54390 | 34756 ft | 568 kts | 94° |
| 2026-04-25 22:00 | 35.34338 | -97.44810 | 34787 ft | 566 kts | 97° |
| 2026-04-25 22:01 | 35.33269 | -97.35326 | 34785 ft | 564 kts | 97° |
| 2026-04-25 22:01 | 35.32406 | -97.27396 | 34791 ft | 563 kts | 97° |
| 2026-04-25 22:02 | 35.31231 | -97.16287 | 34771 ft | 562 kts | 96° |
| 2026-04-25 22:02 | 35.30228 | -97.06796 | 34769 ft | 562 kts | 96° |
| 2026-04-25 22:03 | 35.29216 | -96.97326 | 34761 ft | 560 kts | 97° |
| 2026-04-25 22:03 | 35.28197 | -96.87890 | 34773 ft | 559 kts | 97° |
| 2026-04-25 22:04 | 35.27176 | -96.78516 | 34780 ft | 558 kts | 97° |
| 2026-04-25 22:04 | 35.26143 | -96.69102 | 34778 ft | 557 kts | 97° |
| 2026-04-25 22:05 | 35.25104 | -96.59692 | 34776 ft | 557 kts | 97° |
| 2026-04-25 22:05 | 35.24059 | -96.50301 | 34781 ft | 557 kts | 97° |
| 2026-04-25 22:06 | 35.23005 | -96.40892 | 34781 ft | 558 kts | 97° |
| 2026-04-25 22:06 | 35.21949 | -96.31540 | 34786 ft | 559 kts | 97° |
| 2026-04-25 22:07 | 35.21052 | -96.23640 | 34786 ft | 560 kts | 98° |
| 2026-04-25 22:07 | 35.19797 | -96.12673 | 34787 ft | 561 kts | 98° |
| 2026-04-25 22:08 | 35.18706 | -96.03212 | 34788 ft | 561 kts | 98° |
| 2026-04-25 22:08 | 35.17612 | -95.93784 | 34776 ft | 560 kts | 98° |
| 2026-04-25 22:09 | 35.16512 | -95.84373 | 34777 ft | 558 kts | 98° |
| 2026-04-25 22:09 | 35.15415 | -95.75049 | 34779 ft | 556 kts | 98° |
| 2026-04-25 22:10 | 35.14305 | -95.65681 | 34794 ft | 556 kts | 99° |
| 2026-04-25 22:10 | 35.13188 | -95.56321 | 34785 ft | 556 kts | 99° |
| 2026-04-25 22:11 | 35.12064 | -95.46956 | 34750 ft | 557 kts | 99° |
| 2026-04-25 22:11 | 35.10939 | -95.37658 | 34776 ft | 557 kts | 99° |
| 2026-04-25 22:12 | 35.09796 | -95.28264 | 34791 ft | 563 kts | 99° |
| 2026-04-25 22:12 | 35.09018 | -95.21912 | 34796 ft | 570 kts | 99° |
| 2026-04-25 22:13 | 35.07444 | -95.09133 | 34780 ft | 571 kts | 99° |
| 2026-04-25 22:13 | 35.06455 | -95.01161 | 34772 ft | 570 kts | 99° |
| 2026-04-25 22:14 | 35.05060 | -94.89984 | 34778 ft | 570 kts | 98° |
| 2026-04-25 22:14 | 35.04060 | -94.82037 | 34796 ft | 571 kts | 99° |
| 2026-04-25 22:15 | 35.02641 | -94.70823 | 34802 ft | 572 kts | 99° |
| 2026-04-25 22:16 | 35.00808 | -94.56458 | 34806 ft | 574 kts | 98° |
| 2026-04-25 22:16 | 34.99569 | -94.46836 | 34804 ft | 574 kts | 98° |
| 2026-04-25 22:17 | 34.98534 | -94.38837 | 34803 ft | 573 kts | 98° |
| 2026-04-25 22:17 | 34.97283 | -94.29228 | 34804 ft | 572 kts | 98° |
| 2026-04-25 22:18 | 34.96028 | -94.19657 | 34820 ft | 571 kts | 98° |
| 2026-04-25 22:18 | 34.94770 | -94.10107 | 34815 ft | 569 kts | 99° |
| 2026-04-25 22:19 | 34.93516 | -94.00654 | 34821 ft | 567 kts | 99° |
| 2026-04-25 22:19 | 34.92250 | -93.91169 | 34821 ft | 565 kts | 99° |
| 2026-04-25 22:20 | 34.90982 | -93.81727 | 34821 ft | 563 kts | 99° |
| 2026-04-25 22:20 | 34.89714 | -93.72339 | 34836 ft | 560 kts | 99° |
| 2026-04-25 22:21 | 34.88444 | -93.63001 | 34828 ft | 557 kts | 99° |
| 2026-04-25 22:21 | 34.87174 | -93.53716 | 34832 ft | 555 kts | 99° |
| 2026-04-25 22:22 | 34.86752 | -93.50643 | 34844 ft | 555 kts | 99° |
| 2026-04-25 22:23 | 34.83334 | -93.25951 | 34860 ft | 556 kts | 99° |
| 2026-04-25 22:23 | 34.82034 | -93.16654 | 34868 ft | 557 kts | 99° |
| 2026-04-25 22:24 | 34.80946 | -93.08922 | 34869 ft | 558 kts | 99° |
| 2026-04-25 22:24 | 34.79415 | -92.98102 | 34871 ft | 559 kts | 99° |
| 2026-04-25 22:25 | 34.78087 | -92.88774 | 34876 ft | 559 kts | 99° |
| 2026-04-25 22:25 | 34.76754 | -92.79462 | 34875 ft | 559 kts | 99° |
| 2026-04-25 22:26 | 34.75415 | -92.70153 | 34882 ft | 559 kts | 99° |
| 2026-04-25 22:26 | 34.74064 | -92.60825 | 34881 ft | 559 kts | 100° |
| 2026-04-25 22:27 | 34.72708 | -92.51510 | 34879 ft | 559 kts | 100° |
| 2026-04-25 22:27 | 34.71363 | -92.42321 | 34855 ft | 545 kts | 100° |
| 2026-04-25 22:27 | 34.70706 | -92.37850 | 34858 ft | 530 kts | 99° |
| 2026-04-25 22:28 | 34.70062 | -92.33483 | 34615 ft | 522 kts | 99° |
| 2026-04-25 22:28 | 34.69424 | -92.29159 | 34192 ft | 518 kts | 99° |
| 2026-04-25 22:28 | 34.68790 | -92.24872 | 33794 ft | 514 kts | 100° |
| 2026-04-25 22:28 | 34.68158 | -92.20613 | 33346 ft | 510 kts | 100° |
| 2026-04-25 22:29 | 34.67535 | -92.16375 | 32925 ft | 505 kts | 99° |
| 2026-04-25 22:29 | 34.66984 | -92.12183 | 32518 ft | 500 kts | 98° |
| 2026-04-25 22:29 | 34.66483 | -92.08025 | 32122 ft | 495 kts | 97° |
| 2026-04-25 22:30 | 34.65523 | -91.99820 | 31325 ft | 486 kts | 97° |
| 2026-04-25 22:30 | 34.65039 | -91.95761 | 30947 ft | 483 kts | 97° |
| 2026-04-25 22:30 | 34.64550 | -91.91744 | 30558 ft | 479 kts | 97° |
| 2026-04-25 22:30 | 34.64225 | -91.89103 | 30293 ft | 477 kts | 97° |
| 2026-04-25 22:31 | 34.63572 | -91.83838 | 29764 ft | 474 kts | 97° |
| 2026-04-25 22:31 | 34.63079 | -91.79889 | 29316 ft | 471 kts | 97° |
| 2026-04-25 22:31 | 34.62589 | -91.75973 | 28903 ft | 467 kts | 97° |
| 2026-04-25 22:31 | 34.62102 | -91.72084 | 28506 ft | 464 kts | 97° |
| 2026-04-25 22:32 | 34.61617 | -91.68227 | 28087 ft | 461 kts | 97° |
| 2026-04-25 22:32 | 34.61135 | -91.64400 | 27710 ft | 457 kts | 97° |
| 2026-04-25 22:32 | 34.60655 | -91.60594 | 27316 ft | 454 kts | 97° |
| 2026-04-25 22:32 | 34.60175 | -91.56796 | 26933 ft | 452 kts | 97° |
| 2026-04-25 22:33 | 34.59698 | -91.53037 | 26541 ft | 449 kts | 97° |
| 2026-04-25 22:33 | 34.59223 | -91.49301 | 26163 ft | 446 kts | 97° |
| 2026-04-25 22:33 | 34.58750 | -91.45583 | 25774 ft | 444 kts | 97° |
| 2026-04-25 22:33 | 34.58286 | -91.41948 | 25401 ft | 441 kts | 97° |
| 2026-04-25 22:34 | 34.57818 | -91.38287 | 25018 ft | 438 kts | 97° |
| 2026-04-25 22:34 | 34.57349 | -91.34635 | 24637 ft | 435 kts | 98° |
| 2026-04-25 22:34 | 34.56882 | -91.31020 | 24257 ft | 432 kts | 98° |
| 2026-04-25 22:34 | 34.56415 | -91.27421 | 23883 ft | 430 kts | 98° |
| 2026-04-25 22:35 | 34.55950 | -91.23847 | 23496 ft | 428 kts | 98° |
| 2026-04-25 22:35 | 34.55485 | -91.20281 | 23073 ft | 426 kts | 98° |
| 2026-04-25 22:35 | 34.55023 | -91.16745 | 22661 ft | 422 kts | 98° |
| 2026-04-25 22:35 | 34.54565 | -91.13244 | 22284 ft | 419 kts | 98° |
| 2026-04-25 22:36 | 34.54109 | -91.09769 | 21906 ft | 415 kts | 98° |
| 2026-04-25 22:36 | 34.53658 | -91.06330 | 21537 ft | 411 kts | 98° |
| 2026-04-25 22:36 | 34.53209 | -91.02919 | 21173 ft | 407 kts | 98° |
| 2026-04-25 22:36 | 34.52769 | -90.99581 | 20820 ft | 403 kts | 98° |
| 2026-04-25 22:37 | 34.52327 | -90.96243 | 20468 ft | 400 kts | 98° |
| 2026-04-25 22:37 | 34.51887 | -90.92919 | 20115 ft | 396 kts | 98° |
| 2026-04-25 22:37 | 34.51451 | -90.89630 | 19760 ft | 393 kts | 98° |
| 2026-04-25 22:37 | 34.51018 | -90.86372 | 19403 ft | 390 kts | 98° |
| 2026-04-25 22:38 | 34.50587 | -90.83147 | 19056 ft | 386 kts | 98° |
| 2026-04-25 22:38 | 34.50376 | -90.79948 | 18674 ft | 376 kts | 81° |
| 2026-04-25 22:38 | 34.51038 | -90.76953 | 18359 ft | 364 kts | 61° |
| 2026-04-25 22:38 | 34.52361 | -90.74386 | 17995 ft | 357 kts | 46° |
| 2026-04-25 22:39 | 34.53953 | -90.72084 | 17622 ft | 356 kts | 45° |
| 2026-04-25 22:39 | 34.55569 | -90.69800 | 17269 ft | 356 kts | 45° |
| 2026-04-25 22:39 | 34.57171 | -90.67517 | 16979 ft | 354 kts | 46° |
| 2026-04-25 22:39 | 34.58734 | -90.65255 | 16640 ft | 354 kts | 46° |
| 2026-04-25 22:40 | 34.60314 | -90.62949 | 16287 ft | 355 kts | 46° |
| 2026-04-25 22:40 | 34.61888 | -90.60640 | 15951 ft | 355 kts | 47° |
| 2026-04-25 22:40 | 34.63420 | -90.58297 | 15662 ft | 353 kts | 49° |
| 2026-04-25 22:40 | 34.64916 | -90.55947 | 15369 ft | 350 kts | 49° |
| 2026-04-25 22:41 | 34.66393 | -90.53617 | 15088 ft | 346 kts | 49° |
| 2026-04-25 22:41 | 34.67860 | -90.51311 | 14809 ft | 343 kts | 49° |
| 2026-04-25 22:41 | 34.69321 | -90.49022 | 14515 ft | 340 kts | 49° |
| 2026-04-25 22:41 | 34.70766 | -90.46761 | 14242 ft | 337 kts | 49° |
| 2026-04-25 22:42 | 34.72200 | -90.44518 | 13966 ft | 335 kts | 49° |
| 2026-04-25 22:42 | 34.73625 | -90.42287 | 13706 ft | 333 kts | 49° |
| 2026-04-25 22:42 | 34.75041 | -90.40068 | 13404 ft | 331 kts | 49° |
| 2026-04-25 22:42 | 34.76449 | -90.37860 | 13101 ft | 329 kts | 49° |
| 2026-04-25 22:43 | 34.77848 | -90.35664 | 12820 ft | 329 kts | 49° |
| 2026-04-25 22:43 | 34.79254 | -90.33458 | 12544 ft | 331 kts | 49° |
| 2026-04-25 22:43 | 34.80662 | -90.31247 | 12284 ft | 330 kts | 50° |
| 2026-04-25 22:43 | 34.82039 | -90.29080 | 12006 ft | 325 kts | 50° |
| 2026-04-25 22:44 | 34.83411 | -90.26921 | 11679 ft | 321 kts | 50° |
| 2026-04-25 22:44 | 34.84774 | -90.24776 | 11368 ft | 317 kts | 50° |
| 2026-04-25 22:44 | 34.86116 | -90.22663 | 11054 ft | 313 kts | 50° |
| 2026-04-25 22:44 | 34.87435 | -90.20583 | 10740 ft | 309 kts | 50° |
| 2026-04-25 22:45 | 34.88739 | -90.18526 | 10448 ft | 304 kts | 50° |
| 2026-04-25 22:45 | 34.90028 | -90.16493 | 10139 ft | 300 kts | 50° |
| 2026-04-25 22:45 | 34.91295 | -90.14494 | 9858 ft | 296 kts | 50° |
| 2026-04-25 22:45 | 34.92576 | -90.12580 | 9520 ft | 286 kts | 40° |
| 2026-04-25 22:46 | 34.94244 | -90.11397 | 9234 ft | 274 kts | 13° |
| 2026-04-25 22:46 | 34.96079 | -90.11089 | 9016 ft | 267 kts | 359° |
| 2026-04-25 22:46 | 34.97914 | -90.11071 | 8728 ft | 261 kts | 359° |
| 2026-04-25 22:46 | 34.99711 | -90.11047 | 8462 ft | 255 kts | 359° |
| 2026-04-25 22:47 | 35.01461 | -90.11025 | 8211 ft | 248 kts | 359° |
| 2026-04-25 22:47 | 35.03156 | -90.11001 | 7947 ft | 240 kts | 359° |
| 2026-04-25 22:47 | 35.04800 | -90.10974 | 7710 ft | 234 kts | 359° |
| 2026-04-25 22:47 | 35.06424 | -90.10945 | 7496 ft | 233 kts | 359° |
| 2026-04-25 22:48 | 35.08057 | -90.10915 | 7170 ft | 237 kts | 360° |
| 2026-04-25 22:48 | 35.09707 | -90.10885 | 6825 ft | 236 kts | 360° |
| 2026-04-25 22:48 | 35.11346 | -90.10888 | 6461 ft | 234 kts | 359° |
| 2026-04-25 22:48 | 35.12971 | -90.10914 | 6082 ft | 232 kts | 359° |
| 2026-04-25 22:49 | 35.14556 | -90.10940 | 5706 ft | 229 kts | 359° |
| 2026-04-25 22:49 | 35.16144 | -90.10967 | 5331 ft | 227 kts | 359° |
| 2026-04-25 22:49 | 35.17717 | -90.10990 | 4969 ft | 225 kts | 359° |
| 2026-04-25 22:49 | 35.19277 | -90.11015 | 4581 ft | 223 kts | 359° |
| 2026-04-25 22:50 | 35.20825 | -90.11040 | 4216 ft | 221 kts | 359° |
| 2026-04-25 22:50 | 35.22349 | -90.10987 | 3821 ft | 216 kts | 13° |
| 2026-04-25 22:50 | 35.23644 | -90.10136 | 3407 ft | 214 kts | 49° |
| 2026-04-25 22:50 | 35.24271 | -90.08514 | 3174 ft | 217 kts | 80° |
| 2026-04-25 22:51 | 35.24313 | -90.06655 | 3080 ft | 222 kts | 99° |
| 2026-04-25 22:51 | 35.23653 | -90.04957 | 3011 ft | 223 kts | 130° |
| 2026-04-25 22:51 | 35.22568 | -90.03658 | 2996 ft | 219 kts | 137° |
| 2026-04-25 22:51 | 35.21425 | -90.02433 | 2991 ft | 217 kts | 138° |
| 2026-04-25 22:52 | 35.20290 | -90.01222 | 2980 ft | 216 kts | 138° |
| 2026-04-25 22:52 | 35.19155 | -90.00022 | 2991 ft | 215 kts | 141° |
| 2026-04-25 22:52 | 35.17814 | -89.99216 | 2728 ft | 219 kts | 171° |
| 2026-04-25 22:52 | 35.16800 | -89.99075 | 2592 ft | 216 kts | 175° |
| 2026-04-25 22:53 | 35.14845 | -89.98952 | 2200 ft | 204 kts | 179° |
| 2026-04-25 22:53 | 35.13479 | -89.98925 | 1988 ft | 187 kts | 179° |
| 2026-04-25 22:53 | 35.12226 | -89.98898 | 1718 ft | 171 kts | 179° |
| 2026-04-25 22:53 | 35.11100 | -89.98877 | 1493 ft | 157 kts | 179° |
| 2026-04-25 22:54 | 35.09997 | -89.98854 | 1317 ft | 160 kts | 179° |
| 2026-04-25 22:54 | 35.08873 | -89.98828 | 1097 ft | 162 kts | 180° |
| 2026-04-25 22:54 | 35.07763 | -89.98800 | 908 ft | 156 kts | 180° |
| 2026-04-25 22:54 | 35.06696 | -89.98778 | 664 ft | 152 kts | 182° |
| 2026-04-25 22:55 | 35.05656 | -89.98769 | 476 ft | 147 kts | 180° |
| 2026-04-25 22:55 | 35.04652 | -89.98733 | 349 ft | 141 kts | 180° |
| 2026-04-25 22:55 | 35.03786 | -89.98725 | 333 ft | 100 kts | 179° |
| 2026-04-25 22:55 | 35.03278 | -89.98718 | 335 ft | 47 kts | 179° |
| 2026-04-25 22:56 | 35.03060 | -89.98706 | 332 ft | 28 kts | 176° |
| 2026-04-25 22:56 | 35.02869 | -89.98688 | 330 ft | 28 kts | 171° |
| 2026-04-25 22:56 | 35.02706 | -89.98602 | 329 ft | 25 kts | 137° |
| 2026-04-25 22:56 | 35.02685 | -89.98575 | 331 ft | 0 kts | 133° |
| 2026-04-25 22:57 | 35.02680 | -89.98567 | 330 ft | 5 kts | 133° |
| 2026-04-25 22:57 | 35.02654 | -89.98491 | 332 ft | 14 kts | 67° |
| 2026-04-25 22:58 | 35.02749 | -89.98463 | 332 ft | 15 kts | 360° |
| 2026-04-25 22:58 | 35.02851 | -89.98465 | 332 ft | 15 kts | 359° |
| 2026-04-25 22:58 | 35.02953 | -89.98467 | 331 ft | 15 kts | 359° |
| 2026-04-25 22:58 | 35.03055 | -89.98469 | 332 ft | 15 kts | 359° |
| 2026-04-25 22:59 | 35.03156 | -89.98472 | 333 ft | 15 kts | 359° |
| 2026-04-25 22:59 | 35.03258 | -89.98475 | 333 ft | 15 kts | 359° |
| 2026-04-25 22:59 | 35.03360 | -89.98478 | 333 ft | 15 kts | 358° |
| 2026-04-25 22:59 | 35.03462 | -89.98479 | 333 ft | 15 kts | 359° |
| 2026-04-25 23:00 | 35.03564 | -89.98481 | 331 ft | 15 kts | 359° |
| 2026-04-25 23:00 | 35.03666 | -89.98483 | 330 ft | 15 kts | 358° |
| 2026-04-25 23:00 | 35.03767 | -89.98489 | 332 ft | 15 kts | 358° |
| 2026-04-25 23:00 | 35.03836 | -89.98490 | 333 ft | 15 kts | 359° |
| 2026-04-25 23:01 | 35.03972 | -89.98492 | 331 ft | 15 kts | 359° |
| 2026-04-25 23:01 | 35.04040 | -89.98495 | 332 ft | 15 kts | 358° |
| 2026-04-25 23:01 | 35.04175 | -89.98497 | 332 ft | 15 kts | 359° |
| 2026-04-25 23:01 | 35.04277 | -89.98499 | 332 ft | 15 kts | 359° |
| 2026-04-25 23:02 | 35.04379 | -89.98502 | 332 ft | 15 kts | 359° |
| 2026-04-25 23:02 | 35.04447 | -89.98503 | 332 ft | 15 kts | 359° |
| 2026-04-25 23:02 | 35.04548 | -89.98506 | 332 ft | 15 kts | 359° |
| 2026-04-25 23:02 | 35.04650 | -89.98508 | 332 ft | 15 kts | 359° |
| 2026-04-25 23:03 | 35.04752 | -89.98510 | 333 ft | 15 kts | 359° |
| 2026-04-25 23:03 | 35.04854 | -89.98513 | 333 ft | 15 kts | 359° |
| 2026-04-25 23:03 | 35.04955 | -89.98513 | 332 ft | 15 kts | 360° |
| 2026-04-25 23:03 | 35.05057 | -89.98513 | 332 ft | 15 kts | 0° |
| 2026-04-25 23:04 | 35.05159 | -89.98512 | 333 ft | 15 kts | 0° |
| 2026-04-25 23:04 | 35.05261 | -89.98512 | 330 ft | 15 kts | 0° |
| 2026-04-25 23:04 | 35.05363 | -89.98511 | 332 ft | 15 kts | 0° |
| 2026-04-25 23:04 | 35.05465 | -89.98510 | 333 ft | 15 kts | 0° |
| 2026-04-25 23:05 | 35.05566 | -89.98509 | 331 ft | 15 kts | 1° |
| 2026-04-25 23:05 | 35.05668 | -89.98507 | 332 ft | 15 kts | 0° |
| 2026-04-25 23:05 | 35.05741 | -89.98507 | 331 ft | 0 kts | 0° |
| 2026-04-25 23:06 | 35.05748 | -89.98507 | 330 ft | 6 kts | 0° |
| 2026-04-25 23:06 | 35.05858 | -89.98506 | 331 ft | 19 kts | 360° |
| 2026-04-25 23:06 | 35.05988 | -89.98512 | 331 ft | 19 kts | 354° |
| 2026-04-25 23:07 | 35.06101 | -89.98526 | 333 ft | 13 kts | 354° |
| 2026-04-25 23:07 | 35.06193 | -89.98529 | 333 ft | 13 kts | 1° |
| 2026-04-25 23:07 | 35.06286 | -89.98522 | 333 ft | 13 kts | 12° |
| 2026-04-25 23:07 | 35.06357 | -89.98470 | 331 ft | 10 kts | 5° |
| 2026-04-25 23:08 | 35.06409 | -89.98469 | 333 ft | 6 kts | 2° |
| 2026-04-25 23:08 | 35.06425 | -89.98469 | 333 ft | 0 kts | 2° |